Hi Vista, California
Current Conditions -  °F | °C
As of 9:56 PM on Wednesday 28 Jan 2015 (Local Time) from KWJF Reporting Station
Clear Clear  
Wind Chill: 51°   Ceiling: Unl
Heat Index: 51°   Visibility: 10mi
Dew Point: 46°   Wind: 5mph
Humidity: 83%   Direction: 230°SW
Pressure: 30.22"   Gusts: NA
Location:  34.7349°N, 118.15°W
Report Text: KWJF 290556Z AUTO 23004KT 10SM CLR 11/08 A3022 RMK AO2 SLP235 T01060078 10150 20100 53003
Loading
Personal Weather Stations






























Interactive Weather Map New forecast layout! Learn more

10-Day Weather Forecast

Advertisements
Track Severe Weather on mobile